Terminal Aerodrome Forecast
Issued by NWS

Home | Current Version | Previous Version | Text Only | Print | Product List | Glossary On
Versions: 1 2 3 4 5 6 7 8 9 10 11 12 13 14 15 16 17 18 19 20 21 22 23 24 25 26 27
000
FTUS41 KRNK 010632 AAA
TAFLWB
TAF AMD
KLWB 010632Z 0107/0206 08004KT P6SM SCT020 BKN050
      TEMPO 0107/0109 3SM BR BKN020
     FM010900 00000KT 1/2SM FG OVC001
     FM011300 00000KT 3SM BR BKN004
     FM011500 20004KT P6SM SCT035 BKN050
     FM012300 00000KT P6SM SCT250=

USA.gov is the U.S. government's official web portal to all federal, state and local government web resources and services.